LFBP/PUF METAR and TAF weather

Enter ICAO airport designator
Station Type Date Time Source
LFBP METAR 2021/09/16 22:00 UTC NOAA

LFBP 162200Z AUTO VRB02KT 9999 BKN044 17/16 Q1020 NOSIG


Station Type Date Time Source
LFBP Decoded METAR 2021/09/16 22:00 UTC NOAA

Pau, France (LFBP) 43-23N 000-25W 185M
Sep 16, 2021 - 06:00 PM EDT / 2021.09.16 2200 UTC
Wind: Variable at 2 MPH (2 KT):0
Visibility: greater than 7 mile(s):0
Sky conditions: mostly cloudy
Temperature: 62 F (17 C)
Dew Point: 60 F (16 C)
Relative Humidity: 93%
Pressure (altimeter): 30.12 in. Hg (1020 hPa)
ob: LFBP 162200Z AUTO VRB02KT 9999 BKN044 17/16 Q1020 NOSIG
cycle: 22

Station Type Date Time Source
LFBP TAF 2021/09/16 18:22 UTC NOAA

TAF LFBP 161700Z 1618/1718 24005KT 9999 BKN040 PROB30
TEMPO 1618/1619 4000 SHRA FEW025CB BKN030TCU
BECMG 1620/1622 VRB03KT CAVOK PROB40 1700/1702 4000 BR OVC002
BECMG 1710/1712 09010KT CAVOK

Example: see airport list